sensor_id;sensor_type;location;lat;lon;timestamp;P1;durP1;ratioP1;P2;durP2;ratioP2
14554;SDS011;7364;50.870;4.722;2023-07-28T00:01:32;4.13;;;3.07;;
14554;SDS011;7364;50.870;4.722;2023-07-28T00:03:59;4.60;;;3.13;;
14554;SDS011;7364;50.870;4.722;2023-07-28T00:06:29;3.80;;;3.00;;
14554;SDS011;7364;50.870;4.722;2023-07-28T00:08:56;5.00;;;3.63;;
14554;SDS011;7364;50.870;4.722;2023-07-28T00:11:23;5.13;;;3.57;;
14554;SDS011;7364;50.870;4.722;2023-07-28T00:13:51;5.70;;;2.97;;
14554;SDS011;7364;50.870;4.722;2023-07-28T00:16:19;6.80;;;3.17;;
14554;SDS011;7364;50.870;4.722;2023-07-28T00:18:47;3.20;;;2.83;;
14554;SDS011;7364;50.870;4.722;2023-07-28T00:21:14;3.40;;;2.73;;
14554;SDS011;7364;50.870;4.722;2023-07-28T00:23:43;3.80;;;2.93;;
14554;SDS011;7364;50.870;4.722;2023-07-28T00:26:10;5.03;;;3.57;;
14554;SDS011;7364;50.870;4.722;2023-07-28T00:28:37;7.10;;;2.83;;
14554;SDS011;7364;50.870;4.722;2023-07-28T00:31:05;5.23;;;3.03;;
14554;SDS011;7364;50.870;4.722;2023-07-28T00:33:32;5.10;;;3.13;;
14554;SDS011;7364;50.870;4.722;2023-07-28T00:35:59;4.93;;;3.47;;
14554;SDS011;7364;50.870;4.722;2023-07-28T00:38:26;3.73;;;2.80;;
14554;SDS011;7364;50.870;4.722;2023-07-28T00:40:57;4.33;;;2.93;;
14554;SDS011;7364;50.870;4.722;2023-07-28T00:43:24;6.57;;;2.97;;
14554;SDS011;7364;50.870;4.722;2023-07-28T00:45:52;5.10;;;2.87;;
14554;SDS011;7364;50.870;4.722;2023-07-28T00:48:20;5.53;;;2.93;;
14554;SDS011;7364;50.870;4.722;2023-07-28T00:50:48;3.60;;;2.40;;
14554;SDS011;7364;50.870;4.722;2023-07-28T00:53:16;4.93;;;3.07;;
14554;SDS011;7364;50.870;4.722;2023-07-28T00:55:44;4.27;;;2.80;;
14554;SDS011;7364;50.870;4.722;2023-07-28T00:58:13;4.37;;;3.10;;
14554;SDS011;7364;50.870;4.722;2023-07-28T01:00:40;4.03;;;2.73;;
14554;SDS011;7364;50.870;4.722;2023-07-28T01:03:07;4.57;;;3.23;;
14554;SDS011;7364;50.870;4.722;2023-07-28T01:05:38;6.17;;;3.17;;
14554;SDS011;7364;50.870;4.722;2023-07-28T01:08:11;4.50;;;3.00;;
14554;SDS011;7364;50.870;4.722;2023-07-28T01:10:46;3.27;;;2.43;;
14554;SDS011;7364;50.870;4.722;2023-07-28T01:13:15;3.50;;;2.60;;
14554;SDS011;7364;50.870;4.722;2023-07-28T01:15:42;4.73;;;3.33;;
14554;SDS011;7364;50.870;4.722;2023-07-28T01:18:09;4.37;;;3.07;;
14554;SDS011;7364;50.870;4.722;2023-07-28T01:20:36;4.03;;;2.77;;
14554;SDS011;7364;50.870;4.722;2023-07-28T01:23:07;6.67;;;2.90;;
14554;SDS011;7364;50.870;4.722;2023-07-28T01:25:44;6.10;;;2.80;;
14554;SDS011;7364;50.870;4.722;2023-07-28T01:28:22;4.50;;;2.33;;
14554;SDS011;7364;50.870;4.722;2023-07-28T01:30:50;4.50;;;2.87;;
14554;SDS011;7364;50.870;4.722;2023-07-28T01:33:17;3.50;;;2.77;;
14554;SDS011;7364;50.870;4.722;2023-07-28T01:35:45;4.30;;;2.60;;
14554;SDS011;7364;50.870;4.722;2023-07-28T01:38:12;4.83;;;3.20;;
14554;SDS011;7364;50.870;4.722;2023-07-28T01:40:39;4.07;;;2.83;;
14554;SDS011;7364;50.870;4.722;2023-07-28T01:43:06;5.43;;;3.40;;
14554;SDS011;7364;50.870;4.722;2023-07-28T01:45:35;3.63;;;3.20;;
14554;SDS011;7364;50.870;4.722;2023-07-28T01:48:02;8.07;;;3.60;;
14554;SDS011;7364;50.870;4.722;2023-07-28T01:50:30;5.00;;;3.80;;
14554;SDS011;7364;50.870;4.722;2023-07-28T01:52:57;4.07;;;3.43;;
14554;SDS011;7364;50.870;4.722;2023-07-28T01:55:25;4.17;;;2.57;;
14554;SDS011;7364;50.870;4.722;2023-07-28T01:57:54;4.93;;;3.97;;
14554;SDS011;7364;50.870;4.722;2023-07-28T02:00:23;7.03;;;4.10;;
14554;SDS011;7364;50.870;4.722;2023-07-28T02:02:52;5.80;;;4.10;;
14554;SDS011;7364;50.870;4.722;2023-07-28T02:05:20;6.43;;;3.77;;
14554;SDS011;7364;50.870;4.722;2023-07-28T02:07:47;6.33;;;3.87;;
14554;SDS011;7364;50.870;4.722;2023-07-28T02:10:14;7.07;;;3.97;;
14554;SDS011;7364;50.870;4.722;2023-07-28T02:12:42;6.37;;;4.17;;
14554;SDS011;7364;50.870;4.722;2023-07-28T02:15:09;5.80;;;4.43;;
14554;SDS011;7364;50.870;4.722;2023-07-28T02:17:38;6.17;;;3.57;;
14554;SDS011;7364;50.870;4.722;2023-07-28T02:20:07;5.10;;;3.90;;
14554;SDS011;7364;50.870;4.722;2023-07-28T02:22:37;4.90;;;4.27;;
14554;SDS011;7364;50.870;4.722;2023-07-28T02:25:05;5.50;;;3.90;;
14554;SDS011;7364;50.870;4.722;2023-07-28T02:27:33;5.63;;;3.87;;
14554;SDS011;7364;50.870;4.722;2023-07-28T02:30:01;5.27;;;4.20;;
14554;SDS011;7364;50.870;4.722;2023-07-28T02:32:29;7.40;;;4.63;;
14554;SDS011;7364;50.870;4.722;2023-07-28T02:34:56;7.13;;;4.50;;
14554;SDS011;7364;50.870;4.722;2023-07-28T02:37:25;5.13;;;4.63;;
14554;SDS011;7364;50.870;4.722;2023-07-28T02:39:52;6.67;;;4.73;;
14554;SDS011;7364;50.870;4.722;2023-07-28T02:42:19;8.33;;;4.97;;
14554;SDS011;7364;50.870;4.722;2023-07-28T02:44:49;7.23;;;4.03;;
14554;SDS011;7364;50.870;4.722;2023-07-28T02:47:16;7.33;;;4.73;;
14554;SDS011;7364;50.870;4.722;2023-07-28T02:49:43;6.70;;;4.47;;
14554;SDS011;7364;50.870;4.722;2023-07-28T02:52:11;7.27;;;5.43;;
14554;SDS011;7364;50.870;4.722;2023-07-28T02:54:39;7.67;;;4.87;;
14554;SDS011;7364;50.870;4.722;2023-07-28T02:57:06;7.90;;;5.43;;
14554;SDS011;7364;50.870;4.722;2023-07-28T02:59:34;7.83;;;5.40;;
14554;SDS011;7364;50.870;4.722;2023-07-28T03:02:01;6.20;;;4.60;;
14554;SDS011;7364;50.870;4.722;2023-07-28T03:04:29;7.60;;;4.97;;
14554;SDS011;7364;50.870;4.722;2023-07-28T03:06:57;6.73;;;4.67;;
14554;SDS011;7364;50.870;4.722;2023-07-28T03:09:24;7.77;;;5.00;;
14554;SDS011;7364;50.870;4.722;2023-07-28T03:11:53;7.60;;;5.33;;
14554;SDS011;7364;50.870;4.722;2023-07-28T03:14:20;7.00;;;5.40;;
14554;SDS011;7364;50.870;4.722;2023-07-28T03:16:48;7.70;;;5.67;;
14554;SDS011;7364;50.870;4.722;2023-07-28T03:19:15;8.93;;;4.90;;
14554;SDS011;7364;50.870;4.722;2023-07-28T03:21:42;6.53;;;4.30;;
14554;SDS011;7364;50.870;4.722;2023-07-28T03:24:10;8.20;;;4.93;;
14554;SDS011;7364;50.870;4.722;2023-07-28T03:26:37;8.30;;;5.13;;
14554;SDS011;7364;50.870;4.722;2023-07-28T03:29:06;6.40;;;4.70;;
14554;SDS011;7364;50.870;4.722;2023-07-28T03:31:33;7.70;;;4.50;;
14554;SDS011;7364;50.870;4.722;2023-07-28T03:34:01;7.60;;;4.90;;
14554;SDS011;7364;50.870;4.722;2023-07-28T03:36:29;6.17;;;4.37;;
14554;SDS011;7364;50.870;4.722;2023-07-28T03:38:56;4.80;;;3.53;;
14554;SDS011;7364;50.870;4.722;2023-07-28T03:41:23;7.77;;;4.50;;
14554;SDS011;7364;50.870;4.722;2023-07-28T03:43:51;5.07;;;4.27;;
14554;SDS011;7364;50.870;4.722;2023-07-28T03:46:21;6.40;;;3.87;;
14554;SDS011;7364;50.870;4.722;2023-07-28T03:48:48;5.03;;;4.17;;
14554;SDS011;7364;50.870;4.722;2023-07-28T03:51:15;4.80;;;4.00;;
14554;SDS011;7364;50.870;4.722;2023-07-28T03:53:43;6.17;;;3.00;;
14554;SDS011;7364;50.870;4.722;2023-07-28T03:56:10;5.50;;;3.90;;
14554;SDS011;7364;50.870;4.722;2023-07-28T03:58:38;4.43;;;3.37;;
14554;SDS011;7364;50.870;4.722;2023-07-28T04:01:05;6.60;;;3.60;;
14554;SDS011;7364;50.870;4.722;2023-07-28T04:03:36;6.50;;;3.90;;
14554;SDS011;7364;50.870;4.722;2023-07-28T04:06:05;9.97;;;3.83;;
14554;SDS011;7364;50.870;4.722;2023-07-28T04:08:36;4.40;;;3.27;;
14554;SDS011;7364;50.870;4.722;2023-07-28T04:11:03;7.73;;;3.30;;
14554;SDS011;7364;50.870;4.722;2023-07-28T04:13:31;4.87;;;3.57;;
14554;SDS011;7364;50.870;4.722;2023-07-28T04:15:59;8.23;;;3.87;;
14554;SDS011;7364;50.870;4.722;2023-07-28T04:18:26;4.63;;;3.27;;
14554;SDS011;7364;50.870;4.722;2023-07-28T04:20:55;3.90;;;2.93;;
14554;SDS011;7364;50.870;4.722;2023-07-28T04:23:22;7.53;;;3.30;;
14554;SDS011;7364;50.870;4.722;2023-07-28T04:25:50;4.67;;;3.23;;
14554;SDS011;7364;50.870;4.722;2023-07-28T04:28:17;4.80;;;3.13;;
14554;SDS011;7364;50.870;4.722;2023-07-28T04:30:45;6.70;;;3.20;;
14554;SDS011;7364;50.870;4.722;2023-07-28T04:33:12;5.47;;;3.33;;
14554;SDS011;7364;50.870;4.722;2023-07-28T04:35:39;4.30;;;3.00;;
14554;SDS011;7364;50.870;4.722;2023-07-28T04:38:08;5.20;;;3.27;;
14554;SDS011;7364;50.870;4.722;2023-07-28T04:40:35;8.03;;;3.73;;
14554;SDS011;7364;50.870;4.722;2023-07-28T04:43:02;7.47;;;3.73;;
14554;SDS011;7364;50.870;4.722;2023-07-28T04:45:29;5.43;;;3.47;;
14554;SDS011;7364;50.870;4.722;2023-07-28T04:47:57;4.73;;;3.90;;
14554;SDS011;7364;50.870;4.722;2023-07-28T04:50:24;6.77;;;3.10;;
14554;SDS011;7364;50.870;4.722;2023-07-28T04:52:51;3.83;;;3.20;;
14554;SDS011;7364;50.870;4.722;2023-07-28T04:55:20;4.00;;;2.80;;
14554;SDS011;7364;50.870;4.722;2023-07-28T04:57:47;7.50;;;3.70;;
14554;SDS011;7364;50.870;4.722;2023-07-28T05:00:15;5.70;;;3.40;;
14554;SDS011;7364;50.870;4.722;2023-07-28T05:02:42;5.13;;;3.37;;
14554;SDS011;7364;50.870;4.722;2023-07-28T05:05:10;4.97;;;3.23;;
14554;SDS011;7364;50.870;4.722;2023-07-28T05:07:37;5.97;;;3.77;;
14554;SDS011;7364;50.870;4.722;2023-07-28T05:10:04;5.67;;;3.67;;
14554;SDS011;7364;50.870;4.722;2023-07-28T05:12:33;7.20;;;3.57;;
14554;SDS011;7364;50.870;4.722;2023-07-28T05:15:01;6.73;;;3.67;;
14554;SDS011;7364;50.870;4.722;2023-07-28T05:17:28;4.47;;;3.97;;
14554;SDS011;7364;50.870;4.722;2023-07-28T05:19:55;6.40;;;4.27;;
14554;SDS011;7364;50.870;4.722;2023-07-28T05:22:23;6.70;;;4.07;;
14554;SDS011;7364;50.870;4.722;2023-07-28T05:24:50;5.03;;;4.00;;
14554;SDS011;7364;50.870;4.722;2023-07-28T05:27:17;4.73;;;4.07;;
14554;SDS011;7364;50.870;4.722;2023-07-28T05:29:46;9.63;;;5.20;;
14554;SDS011;7364;50.870;4.722;2023-07-28T05:32:13;5.17;;;4.40;;
14554;SDS011;7364;50.870;4.722;2023-07-28T05:34:41;5.53;;;4.13;;
14554;SDS011;7364;50.870;4.722;2023-07-28T05:37:09;9.77;;;4.23;;
14554;SDS011;7364;50.870;4.722;2023-07-28T05:39:36;7.13;;;4.77;;
14554;SDS011;7364;50.870;4.722;2023-07-28T05:42:03;6.13;;;4.33;;
14554;SDS011;7364;50.870;4.722;2023-07-28T05:44:33;6.57;;;4.10;;
14554;SDS011;7364;50.870;4.722;2023-07-28T05:47:02;6.07;;;3.93;;
14554;SDS011;7364;50.870;4.722;2023-07-28T05:49:30;5.27;;;3.50;;
14554;SDS011;7364;50.870;4.722;2023-07-28T05:51:57;3.80;;;3.10;;
14554;SDS011;7364;50.870;4.722;2023-07-28T05:54:24;4.57;;;2.87;;
14554;SDS011;7364;50.870;4.722;2023-07-28T05:56:52;3.47;;;2.67;;
14554;SDS011;7364;50.870;4.722;2023-07-28T05:59:19;4.07;;;2.77;;
14554;SDS011;7364;50.870;4.722;2023-07-28T06:01:46;4.07;;;2.43;;
14554;SDS011;7364;50.870;4.722;2023-07-28T06:04:16;3.87;;;2.40;;
14554;SDS011;7364;50.870;4.722;2023-07-28T06:06:43;3.37;;;2.17;;
14554;SDS011;7364;50.870;4.722;2023-07-28T06:09:10;2.83;;;2.03;;
14554;SDS011;7364;50.870;4.722;2023-07-28T06:11:37;6.67;;;2.07;;
14554;SDS011;7364;50.870;4.722;2023-07-28T06:14:05;2.77;;;1.63;;
14554;SDS011;7364;50.870;4.722;2023-07-28T06:16:32;2.47;;;1.77;;
14554;SDS011;7364;50.870;4.722;2023-07-28T06:18:59;2.63;;;1.80;;
14554;SDS011;7364;50.870;4.722;2023-07-28T06:21:28;3.77;;;2.03;;
14554;SDS011;7364;50.870;4.722;2023-07-28T06:23:55;1.93;;;1.30;;
14554;SDS011;7364;50.870;4.722;2023-07-28T06:26:22;2.73;;;1.10;;
14554;SDS011;7364;50.870;4.722;2023-07-28T06:28:50;1.97;;;1.10;;
14554;SDS011;7364;50.870;4.722;2023-07-28T06:31:17;1.53;;;1.03;;
14554;SDS011;7364;50.870;4.722;2023-07-28T06:33:44;2.23;;;1.40;;
14554;SDS011;7364;50.870;4.722;2023-07-28T06:36:13;1.87;;;1.10;;
14554;SDS011;7364;50.870;4.722;2023-07-28T06:38:42;1.97;;;1.20;;
14554;SDS011;7364;50.870;4.722;2023-07-28T06:41:13;2.33;;;1.40;;
14554;SDS011;7364;50.870;4.722;2023-07-28T06:43:40;2.10;;;1.17;;
14554;SDS011;7364;50.870;4.722;2023-07-28T06:46:07;2.40;;;1.23;;
14554;SDS011;7364;50.870;4.722;2023-07-28T06:48:35;2.80;;;1.40;;
14554;SDS011;7364;50.870;4.722;2023-07-28T06:51:02;1.57;;;1.20;;
14554;SDS011;7364;50.870;4.722;2023-07-28T06:53:29;1.43;;;1.00;;
14554;SDS011;7364;50.870;4.722;2023-07-28T06:55:58;4.20;;;2.20;;
14554;SDS011;7364;50.870;4.722;2023-07-28T06:58:25;2.63;;;1.40;;
14554;SDS011;7364;50.870;4.722;2023-07-28T07:00:52;2.03;;;1.30;;
14554;SDS011;7364;50.870;4.722;2023-07-28T07:03:21;2.00;;;1.30;;
14554;SDS011;7364;50.870;4.722;2023-07-28T07:05:48;2.53;;;1.50;;
14554;SDS011;7364;50.870;4.722;2023-07-28T07:08:15;4.80;;;1.50;;
14554;SDS011;7364;50.870;4.722;2023-07-28T07:10:47;2.23;;;1.60;;
14554;SDS011;7364;50.870;4.722;2023-07-28T07:13:16;2.67;;;1.60;;
14554;SDS011;7364;50.870;4.722;2023-07-28T07:15:44;2.80;;;1.70;;
14554;SDS011;7364;50.870;4.722;2023-07-28T07:18:11;2.60;;;1.50;;
14554;SDS011;7364;50.870;4.722;2023-07-28T07:20:39;3.87;;;2.37;;
14554;SDS011;7364;50.870;4.722;2023-07-28T07:23:06;3.00;;;1.60;;
14554;SDS011;7364;50.870;4.722;2023-07-28T07:25:33;3.47;;;1.50;;
14554;SDS011;7364;50.870;4.722;2023-07-28T07:28:01;4.40;;;1.70;;
14554;SDS011;7364;50.870;4.722;2023-07-28T07:30:29;1.87;;;1.40;;
14554;SDS011;7364;50.870;4.722;2023-07-28T07:32:59;1.40;;;1.03;;
14554;SDS011;7364;50.870;4.722;2023-07-28T07:35:26;2.97;;;1.47;;
14554;SDS011;7364;50.870;4.722;2023-07-28T07:37:53;5.03;;;1.80;;
14554;SDS011;7364;50.870;4.722;2023-07-28T07:40:21;2.53;;;1.50;;
14554;SDS011;7364;50.870;4.722;2023-07-28T07:42:48;1.97;;;1.27;;
14554;SDS011;7364;50.870;4.722;2023-07-28T07:45:17;2.43;;;1.37;;
14554;SDS011;7364;50.870;4.722;2023-07-28T07:47:45;3.80;;;1.60;;
14554;SDS011;7364;50.870;4.722;2023-07-28T07:50:13;2.30;;;1.30;;
14554;SDS011;7364;50.870;4.722;2023-07-28T07:52:40;0.83;;;0.70;;
14554;SDS011;7364;50.870;4.722;2023-07-28T07:55:08;0.50;;;0.40;;
14554;SDS011;7364;50.870;4.722;2023-07-28T07:57:37;0.63;;;0.60;;
14554;SDS011;7364;50.870;4.722;2023-07-28T08:00:05;0.70;;;0.70;;
14554;SDS011;7364;50.870;4.722;2023-07-28T08:02:33;0.83;;;0.40;;
14554;SDS011;7364;50.870;4.722;2023-07-28T08:05:02;0.93;;;0.40;;
14554;SDS011;7364;50.870;4.722;2023-07-28T08:07:30;0.63;;;0.53;;
14554;SDS011;7364;50.870;4.722;2023-07-28T08:09:57;1.53;;;0.80;;
14554;SDS011;7364;50.870;4.722;2023-07-28T08:12:25;1.33;;;0.73;;
14554;SDS011;7364;50.870;4.722;2023-07-28T08:14:52;1.57;;;0.93;;
14554;SDS011;7364;50.870;4.722;2023-07-28T08:17:20;2.27;;;1.50;;
14554;SDS011;7364;50.870;4.722;2023-07-28T08:19:47;1.93;;;1.50;;
14554;SDS011;7364;50.870;4.722;2023-07-28T08:22:16;3.37;;;2.17;;
14554;SDS011;7364;50.870;4.722;2023-07-28T08:24:43;2.37;;;1.63;;
14554;SDS011;7364;50.870;4.722;2023-07-28T08:27:10;2.00;;;1.40;;
14554;SDS011;7364;50.870;4.722;2023-07-28T08:29:37;2.67;;;1.73;;
14554;SDS011;7364;50.870;4.722;2023-07-28T08:32:05;3.40;;;1.83;;
14554;SDS011;7364;50.870;4.722;2023-07-28T08:34:33;2.60;;;1.73;;
14554;SDS011;7364;50.870;4.722;2023-07-28T08:37:00;6.47;;;1.90;;
14554;SDS011;7364;50.870;4.722;2023-07-28T08:39:29;3.30;;;2.37;;
14554;SDS011;7364;50.870;4.722;2023-07-28T08:41:59;4.97;;;1.70;;
14554;SDS011;7364;50.870;4.722;2023-07-28T08:44:29;3.27;;;1.87;;
14554;SDS011;7364;50.870;4.722;2023-07-28T08:46:58;1.97;;;1.53;;
14554;SDS011;7364;50.870;4.722;2023-07-28T08:49:26;2.23;;;1.67;;
14554;SDS011;7364;50.870;4.722;2023-07-28T08:51:57;2.97;;;1.67;;
14554;SDS011;7364;50.870;4.722;2023-07-28T08:54:25;3.33;;;1.37;;
14554;SDS011;7364;50.870;4.722;2023-07-28T08:56:54;2.17;;;1.40;;
14554;SDS011;7364;50.870;4.722;2023-07-28T08:59:21;1.77;;;1.37;;
14554;SDS011;7364;50.870;4.722;2023-07-28T09:01:51;1.70;;;1.37;;
14554;SDS011;7364;50.870;4.722;2023-07-28T09:04:18;2.07;;;1.30;;
14554;SDS011;7364;50.870;4.722;2023-07-28T09:06:46;1.83;;;1.17;;
14554;SDS011;7364;50.870;4.722;2023-07-28T09:09:14;1.87;;;0.90;;
14554;SDS011;7364;50.870;4.722;2023-07-28T09:11:43;1.50;;;1.03;;
14554;SDS011;7364;50.870;4.722;2023-07-28T09:14:13;1.43;;;1.13;;
14554;SDS011;7364;50.870;4.722;2023-07-28T09:16:41;2.07;;;0.83;;
14554;SDS011;7364;50.870;4.722;2023-07-28T09:19:09;1.00;;;0.77;;
14554;SDS011;7364;50.870;4.722;2023-07-28T09:21:37;1.03;;;0.77;;
14554;SDS011;7364;50.870;4.722;2023-07-28T09:24:05;2.17;;;1.00;;
14554;SDS011;7364;50.870;4.722;2023-07-28T09:26:38;1.50;;;0.80;;
14554;SDS011;7364;50.870;4.722;2023-07-28T09:29:14;0.60;;;0.50;;
14554;SDS011;7364;50.870;4.722;2023-07-28T09:31:42;1.83;;;1.00;;
14554;SDS011;7364;50.870;4.722;2023-07-28T09:34:10;2.17;;;1.20;;
14554;SDS011;7364;50.870;4.722;2023-07-28T09:36:38;2.60;;;1.23;;
14554;SDS011;7364;50.870;4.722;2023-07-28T09:39:06;1.83;;;1.00;;
14554;SDS011;7364;50.870;4.722;2023-07-28T09:41:34;1.50;;;1.10;;
14554;SDS011;7364;50.870;4.722;2023-07-28T09:44:03;1.10;;;0.83;;
14554;SDS011;7364;50.870;4.722;2023-07-28T09:46:34;1.87;;;1.20;;
14554;SDS011;7364;50.870;4.722;2023-07-28T09:49:04;2.07;;;1.33;;
14554;SDS011;7364;50.870;4.722;2023-07-28T09:51:36;1.73;;;1.27;;
14554;SDS011;7364;50.870;4.722;2023-07-28T09:54:10;1.40;;;1.03;;
14554;SDS011;7364;50.870;4.722;2023-07-28T09:56:48;1.87;;;1.43;;
14554;SDS011;7364;50.870;4.722;2023-07-28T09:59:16;3.33;;;1.80;;
14554;SDS011;7364;50.870;4.722;2023-07-28T10:01:47;3.40;;;2.30;;
14554;SDS011;7364;50.870;4.722;2023-07-28T10:04:15;3.83;;;2.30;;
14554;SDS011;7364;50.870;4.722;2023-07-28T10:06:42;3.03;;;2.10;;
14554;SDS011;7364;50.870;4.722;2023-07-28T10:09:09;3.83;;;2.77;;
14554;SDS011;7364;50.870;4.722;2023-07-28T10:11:37;4.17;;;3.20;;
14554;SDS011;7364;50.870;4.722;2023-07-28T10:14:05;5.30;;;3.90;;
14554;SDS011;7364;50.870;4.722;2023-07-28T10:16:37;5.13;;;4.30;;
14554;SDS011;7364;50.870;4.722;2023-07-28T10:19:07;4.77;;;3.90;;
14554;SDS011;7364;50.870;4.722;2023-07-28T10:21:39;4.97;;;4.43;;
14554;SDS011;7364;50.870;4.722;2023-07-28T10:24:07;4.97;;;4.13;;
14554;SDS011;7364;50.870;4.722;2023-07-28T10:26:35;4.63;;;4.10;;
14554;SDS011;7364;50.870;4.722;2023-07-28T10:29:10;4.93;;;3.33;;
14554;SDS011;7364;50.870;4.722;2023-07-28T10:31:49;4.30;;;3.03;;
14554;SDS011;7364;50.870;4.722;2023-07-28T10:34:18;4.47;;;2.70;;
14554;SDS011;7364;50.870;4.722;2023-07-28T10:36:47;5.33;;;2.27;;
14554;SDS011;7364;50.870;4.722;2023-07-28T10:39:23;3.93;;;2.03;;
14554;SDS011;7364;50.870;4.722;2023-07-28T10:42:00;3.50;;;1.63;;
14554;SDS011;7364;50.870;4.722;2023-07-28T10:44:29;3.10;;;2.43;;
14554;SDS011;7364;50.870;4.722;2023-07-28T10:46:57;2.33;;;1.67;;
14554;SDS011;7364;50.870;4.722;2023-07-28T10:49:26;1.93;;;1.50;;
14554;SDS011;7364;50.870;4.722;2023-07-28T10:51:53;1.93;;;1.43;;
14554;SDS011;7364;50.870;4.722;2023-07-28T10:54:21;1.70;;;1.37;;
14554;SDS011;7364;50.870;4.722;2023-07-28T10:56:48;3.30;;;1.30;;
14554;SDS011;7364;50.870;4.722;2023-07-28T10:59:15;2.30;;;1.53;;
14554;SDS011;7364;50.870;4.722;2023-07-28T11:01:43;2.20;;;1.37;;
14554;SDS011;7364;50.870;4.722;2023-07-28T11:04:11;1.87;;;1.27;;
14554;SDS011;7364;50.870;4.722;2023-07-28T11:06:40;1.83;;;1.30;;
14554;SDS011;7364;50.870;4.722;2023-07-28T11:09:10;2.07;;;1.03;;
14554;SDS011;7364;50.870;4.722;2023-07-28T11:11:40;2.23;;;1.20;;
14554;SDS011;7364;50.870;4.722;2023-07-28T11:14:08;1.10;;;0.90;;
14554;SDS011;7364;50.870;4.722;2023-07-28T11:16:36;2.73;;;1.27;;
14554;SDS011;7364;50.870;4.722;2023-07-28T11:19:07;1.93;;;1.00;;
14554;SDS011;7364;50.870;4.722;2023-07-28T11:21:36;2.10;;;1.20;;
14554;SDS011;7364;50.870;4.722;2023-07-28T11:24:05;2.33;;;0.90;;
14554;SDS011;7364;50.870;4.722;2023-07-28T11:26:34;3.67;;;1.07;;
14554;SDS011;7364;50.870;4.722;2023-07-28T11:29:02;2.53;;;1.33;;
14554;SDS011;7364;50.870;4.722;2023-07-28T11:31:31;1.70;;;0.77;;
14554;SDS011;7364;50.870;4.722;2023-07-28T11:33:59;1.63;;;1.17;;
14554;SDS011;7364;50.870;4.722;2023-07-28T11:36:26;1.77;;;1.30;;
14554;SDS011;7364;50.870;4.722;2023-07-28T11:38:57;2.20;;;1.20;;
14554;SDS011;7364;50.870;4.722;2023-07-28T11:41:27;1.63;;;1.13;;
14554;SDS011;7364;50.870;4.722;2023-07-28T11:43:55;1.60;;;1.00;;
14554;SDS011;7364;50.870;4.722;2023-07-28T11:46:32;1.90;;;1.10;;
14554;SDS011;7364;50.870;4.722;2023-07-28T11:49:06;3.07;;;2.07;;
14554;SDS011;7364;50.870;4.722;2023-07-28T11:51:36;2.57;;;2.10;;
14554;SDS011;7364;50.870;4.722;2023-07-28T11:54:10;3.00;;;2.23;;
14554;SDS011;7364;50.870;4.722;2023-07-28T11:56:40;2.40;;;1.93;;
14554;SDS011;7364;50.870;4.722;2023-07-28T11:59:08;2.10;;;1.80;;
14554;SDS011;7364;50.870;4.722;2023-07-28T12:01:35;1.90;;;1.50;;
14554;SDS011;7364;50.870;4.722;2023-07-28T12:04:22;3.67;;;2.03;;
14554;SDS011;7364;50.870;4.722;2023-07-28T12:07:00;2.50;;;1.37;;
14554;SDS011;7364;50.870;4.722;2023-07-28T12:09:30;2.37;;;1.67;;
14554;SDS011;7364;50.870;4.722;2023-07-28T12:11:59;3.20;;;2.23;;
14554;SDS011;7364;50.870;4.722;2023-07-28T12:14:33;3.87;;;2.23;;
14554;SDS011;7364;50.870;4.722;2023-07-28T12:17:00;2.77;;;1.77;;
14554;SDS011;7364;50.870;4.722;2023-07-28T12:19:28;2.93;;;1.97;;
14554;SDS011;7364;50.870;4.722;2023-07-28T12:21:55;4.10;;;2.40;;
14554;SDS011;7364;50.870;4.722;2023-07-28T12:24:23;3.10;;;2.13;;
14554;SDS011;7364;50.870;4.722;2023-07-28T12:26:50;2.40;;;1.70;;
14554;SDS011;7364;50.870;4.722;2023-07-28T12:29:19;2.30;;;2.00;;
14554;SDS011;7364;50.870;4.722;2023-07-28T12:31:46;2.90;;;1.70;;
14554;SDS011;7364;50.870;4.722;2023-07-28T12:34:14;2.67;;;1.60;;
14554;SDS011;7364;50.870;4.722;2023-07-28T12:36:41;1.83;;;1.50;;
14554;SDS011;7364;50.870;4.722;2023-07-28T12:39:08;4.10;;;1.80;;
14554;SDS011;7364;50.870;4.722;2023-07-28T12:41:35;2.60;;;1.50;;
14554;SDS011;7364;50.870;4.722;2023-07-28T12:44:02;2.63;;;1.48;;
14554;SDS011;7364;50.870;4.722;2023-07-28T12:46:31;2.53;;;1.83;;
14554;SDS011;7364;50.870;4.722;2023-07-28T12:49:02;2.38;;;1.67;;
14554;SDS011;7364;50.870;4.722;2023-07-28T12:51:29;2.30;;;1.60;;
14554;SDS011;7364;50.870;4.722;2023-07-28T12:53:57;3.03;;;1.90;;
14554;SDS011;7364;50.870;4.722;2023-07-28T12:56:25;2.08;;;1.50;;
14554;SDS011;7364;50.870;4.722;2023-07-28T12:58:52;2.80;;;1.90;;
14554;SDS011;7364;50.870;4.722;2023-07-28T13:01:19;3.10;;;2.00;;
14554;SDS011;7364;50.870;4.722;2023-07-28T13:03:48;2.20;;;1.60;;
14554;SDS011;7364;50.870;4.722;2023-07-28T13:06:15;2.53;;;2.03;;
14554;SDS011;7364;50.870;4.722;2023-07-28T13:08:42;3.27;;;1.70;;
14554;SDS011;7364;50.870;4.722;2023-07-28T13:11:10;2.03;;;1.70;;
14554;SDS011;7364;50.870;4.722;2023-07-28T13:13:39;3.70;;;1.67;;
14554;SDS011;7364;50.870;4.722;2023-07-28T13:16:06;4.25;;;1.60;;
14554;SDS011;7364;50.870;4.722;2023-07-28T13:18:34;5.70;;;1.70;;
14554;SDS011;7364;50.870;4.722;2023-07-28T13:21:02;2.58;;;1.58;;
14554;SDS011;7364;50.870;4.722;2023-07-28T13:23:30;2.47;;;1.30;;
14554;SDS011;7364;50.870;4.722;2023-07-28T13:25:57;2.58;;;1.85;;
14554;SDS011;7364;50.870;4.722;2023-07-28T13:28:24;1.98;;;1.30;;
14554;SDS011;7364;50.870;4.722;2023-07-28T13:30:51;2.25;;;1.67;;
14554;SDS011;7364;50.870;4.722;2023-07-28T13:33:22;2.15;;;1.42;;
14554;SDS011;7364;50.870;4.722;2023-07-28T13:35:52;2.13;;;1.23;;
14554;SDS011;7364;50.870;4.722;2023-07-28T13:38:21;2.28;;;1.38;;
14554;SDS011;7364;50.870;4.722;2023-07-28T13:40:48;3.25;;;1.30;;
14554;SDS011;7364;50.870;4.722;2023-07-28T13:43:15;1.35;;;1.05;;
14554;SDS011;7364;50.870;4.722;2023-07-28T13:45:43;3.53;;;1.40;;
14554;SDS011;7364;50.870;4.722;2023-07-28T13:48:10;2.03;;;1.40;;
14554;SDS011;7364;50.870;4.722;2023-07-28T13:50:37;2.97;;;1.53;;
14554;SDS011;7364;50.870;4.722;2023-07-28T13:53:04;3.90;;;2.00;;
14554;SDS011;7364;50.870;4.722;2023-07-28T13:55:33;1.70;;;1.23;;
14554;SDS011;7364;50.870;4.722;2023-07-28T13:58:00;2.97;;;1.50;;
14554;SDS011;7364;50.870;4.722;2023-07-28T14:00:27;1.80;;;1.40;;
14554;SDS011;7364;50.870;4.722;2023-07-28T14:02:55;2.60;;;1.67;;
14554;SDS011;7364;50.870;4.722;2023-07-28T14:05:23;1.93;;;1.37;;
14554;SDS011;7364;50.870;4.722;2023-07-28T14:07:50;1.87;;;1.50;;
14554;SDS011;7364;50.870;4.722;2023-07-28T14:10:17;5.17;;;1.70;;
14554;SDS011;7364;50.870;4.722;2023-07-28T14:12:46;1.90;;;1.40;;
14554;SDS011;7364;50.870;4.722;2023-07-28T14:15:13;2.00;;;1.20;;
14554;SDS011;7364;50.870;4.722;2023-07-28T14:17:41;1.83;;;1.40;;
14554;SDS011;7364;50.870;4.722;2023-07-28T14:20:08;2.17;;;1.40;;
14554;SDS011;7364;50.870;4.722;2023-07-28T14:22:37;1.80;;;1.30;;
14554;SDS011;7364;50.870;4.722;2023-07-28T14:25:04;3.53;;;1.52;;
14554;SDS011;7364;50.870;4.722;2023-07-28T14:27:32;1.73;;;1.25;;
14554;SDS011;7364;50.870;4.722;2023-07-28T14:30:01;2.90;;;1.48;;
14554;SDS011;7364;50.870;4.722;2023-07-28T14:32:28;1.42;;;1.05;;
14554;SDS011;7364;50.870;4.722;2023-07-28T14:34:55;2.00;;;1.30;;
14554;SDS011;7364;50.870;4.722;2023-07-28T14:37:23;2.25;;;1.23;;
14554;SDS011;7364;50.870;4.722;2023-07-28T14:39:50;1.85;;;1.00;;
14554;SDS011;7364;50.870;4.722;2023-07-28T14:42:18;1.42;;;1.10;;
14554;SDS011;7364;50.870;4.722;2023-07-28T14:44:45;2.80;;;1.42;;
14554;SDS011;7364;50.870;4.722;2023-07-28T14:47:14;1.55;;;1.10;;
14554;SDS011;7364;50.870;4.722;2023-07-28T14:49:41;2.85;;;1.63;;
14554;SDS011;7364;50.870;4.722;2023-07-28T14:52:08;3.13;;;1.33;;
14554;SDS011;7364;50.870;4.722;2023-07-28T14:54:36;2.42;;;1.20;;
14554;SDS011;7364;50.870;4.722;2023-07-28T14:57:03;2.25;;;1.10;;
14554;SDS011;7364;50.870;4.722;2023-07-28T14:59:30;2.10;;;1.33;;
14554;SDS011;7364;50.870;4.722;2023-07-28T15:01:58;1.70;;;1.27;;
14554;SDS011;7364;50.870;4.722;2023-07-28T15:04:26;3.08;;;1.45;;
14554;SDS011;7364;50.870;4.722;2023-07-28T15:06:55;4.32;;;1.35;;